Record high temperature 39.4°C Record low temperature -14.6°C Record high gust 68.5 km/h Record high average 47.2 km/h Record daily rain 55.3 mm Record low windchill -17.5°C Record high barometer 1045.0 hPa Record low barometer 970.0 hPa
Daily high pressure 1026.0 hPa Daily low pressure 1024.0 hPa Daily low windchill 2.6°C Daily high heat index 4.9°C Daily high gust speed 10.0 kmh WSW Daily high average speed 8.7 kmh WSW

This page is updated from recent data collected by a WMR200 weather station Use the Reload or Refresh facility on your browser to retrieve the latest data.

Status report of weather station: Bienvenue sur la Station Météo de Godarville



Weather report/warning/Metars

Alexandroupoli Airport , Greece (LGAL) 40-51N 025-55E 3M
Mar 24, 2019 - 03:20 PM EDT / 2019.03.24 1920 UTC
Wind: Calm:0
Visibility: greater than 7 mile(s):0
Temperature: 46 F (8 C)
Dew Point: 33 F (1 C)
Relative Humidity: 61%
Pressure (altimeter): 30.09 in. Hg (1019 hPa)
ob: LGAL 241920Z 00000KT CAVOK 08/01 Q1019
cycle: 19

Charleroi / Gosselies, Belgium (EBCI) 50-28N 004-27E 192M
Mar 24, 2019 - 08:50 PM EDT / 2019.03.25 0050 UTC
Wind: from the WSW (250 degrees) at 6 MPH (5 KT):0
Visibility: greater than 7 mile(s):0
Temperature: 37 F (3 C)
Dew Point: 30 F (-1 C)
Relative Humidity: 74%
Pressure (altimeter): 30.27 in. Hg (1025 hPa)
ob: EBCI 250050Z 25005KT CAVOK 03/M01 Q1025 NOSIG
cycle: 1

Bruxelles National, Belgium (EBBR) 50-54N 004-32E 58M
Mar 24, 2019 - 08:50 PM EDT / 2019.03.25 0050 UTC
Wind: from the W (260 degrees) at 12 MPH (10 KT):0
Visibility: greater than 7 mile(s):0
Temperature: 42 F (6 C)
Dew Point: 33 F (1 C)
Relative Humidity: 70%
Pressure (altimeter): 30.24 in. Hg (1024 hPa)
ob: EBBR 250050Z 26010KT CAVOK 06/01 Q1024 NOSIG
cycle: 1

Koksijde, Belgium (EBFN) 51-05N 002-39E 9M
Mar 24, 2019 - 08:55 PM EDT / 2019.03.25 0055 UTC
Wind: from the WNW (290 degrees) at 14 MPH (12 KT):0
Visibility: greater than 7 mile(s):0
Temperature: 46 F (8 C)
Dew Point: 37 F (3 C)
Relative Humidity: 70%
Pressure (altimeter): 30.30 in. Hg (1026 hPa)
ob: EBFN 250055Z AUTO 29012KT 9999 NCD 08/03 Q1026 BLU
cycle: 1

Poznan, Poland (EPPO) 52-25N 016-50E 92M
Mar 24, 2019 - 09:00 PM EDT / 2019.03.25 0100 UTC
Wind: from the NW (310 degrees) at 3 MPH (3 KT):0
Visibility: greater than 7 mile(s):0
Temperature: 32 F (0 C)
Dew Point: 28 F (-2 C)
Relative Humidity: 86%
Pressure (altimeter): 30.00 in. Hg (1016 hPa)
ob: EPPO 250100Z 31003KT CAVOK M00/M02 Q1016 
cycle: 1



Coucher du Soleil:
19:01:44

Lever de Lune:
23:31:22 24/03/19

Coucher de Lune:
08:35:03 24/03/19

Premier Quartier 14 mars 2019
Pleine Lune 21 mars 2019
Dernier Quartier 28 mars 2019
Nouvelle Lune 5 avril 2019
Âge de lune : 19 jours,0 heures,53 minutes,81%
Les heures du jour possible étaient aujourd’hui 12:24